Time;durP1;ratioP1;P1;durP2;ratioP2;P2;SDS_P1;SDS_P2;PMS_P1;PMS_P2;Temp;Humidity;BMP_temperature;BMP_pressure;BME280_temperature;BME280_humidity;BME280_pressure;Samples;Min_cycle;Max_cycle;Signal;HPM_P1;HPM_P2
2022/04/08 00:00:32;;;;;;;;;;;;;;;;;;2140963;27;19930;-43
2022/04/08 00:01:34;;;;;;;;;;;;;;;;;;2140745;27;19923;-43
2022/04/08 00:02:35;;;;;;;;;;;;;;;;;;2140904;27;19929;-42
2022/04/08 00:03:36;;;;;;;;;;;;;;;;;;2140871;27;19930;-42
2022/04/08 00:04:37;;;;;;;;;;;;;;;;;;2140708;27;19927;-42
2022/04/08 00:05:38;;;;;;;;;;;;;;;;;;2140720;27;19930;-43
2022/04/08 00:06:39;;;;;;;;;;;;;;;;;;2140681;27;19931;-43
2022/04/08 00:07:40;;;;;;;;;;;;;;;;;;2140815;27;19927;-43
2022/04/08 00:08:41;;;;;;;;;;;;;;;;;;2140927;27;19922;-43
2022/04/08 00:09:42;;;;;;;;;;;;;;;;;;2140995;27;20379;-47
2022/04/08 00:10:43;;;;;;;;;;;;;;;;;;2140961;27;19923;-43
2022/04/08 00:11:44;;;;;;;;;;;;;;;;;;2140570;27;20383;-43
2022/04/08 00:12:45;;;;;;;;;;;;;;;;;;2140857;27;19999;-48
2022/04/08 00:13:51;;;;;;;;;;;;;;;;;;2140855;27;19938;-47
2022/04/08 00:14:52;;;;;;;;;;;;;;;;;;2132158;27;19927;-48
2022/04/08 00:15:54;;;;;;;;;;;;;;;;;;2132076;27;19923;-49
2022/04/08 00:16:55;;;;;;;;;;;;;;;;;;2131944;27;19923;-47
2022/04/08 00:17:56;;;;;;;;;;;;;;;;;;2132107;27;19923;-47
2022/04/08 00:18:57;;;;;;;;;;;;;;;;;;2131950;27;20269;-47
2022/04/08 00:19:58;;;;;;;;;;;;;;;;;;2132162;27;20246;-48
2022/04/08 00:20:59;;;;;;;;;;;;;;;;;;2132021;27;19988;-47
2022/04/08 00:22:00;;;;;;;;;;;;;;;;;;2132058;27;19930;-47
2022/04/08 00:23:02;;;;;;;;;;;;;;;;;;2138037;27;19930;-43
2022/04/08 00:24:02;;;;;;;;;;;;;;;;;;2140710;27;19923;-43
2022/04/08 00:25:04;;;;;;;;;;;;;;;;;;2140839;27;19945;-43
2022/04/08 00:26:05;;;;;;;;;;;;;;;;;;2140345;27;19923;-43
2022/04/08 00:27:05;;;;;;;;;;;;;;;;;;2140497;27;19923;-43
2022/04/08 00:28:07;;;;;;;;;;;;;;;;;;2140618;27;19923;-44
2022/04/08 00:29:07;;;;;;;;;;;;;;;;;;2140628;27;19926;-48
2022/04/08 00:30:09;;;;;;;;;;;;;;;;;;2140585;27;19929;-47
2022/04/08 00:31:10;;;;;;;;;;;;;;;;;;2140574;27;19952;-48
2022/04/08 00:32:11;;;;;;;;;;;;;;;;;;2140518;27;19971;-43
2022/04/08 00:33:12;;;;;;;;;;;;;;;;;;2140499;27;20345;-43
2022/04/08 00:34:13;;;;;;;;;;;;;;;;;;2140594;27;19927;-44
2022/04/08 00:35:14;;;;;;;;;;;;;;;;;;2140545;27;19926;-44
2022/04/08 00:36:15;;;;;;;;;;;;;;;;;;2140383;27;19941;-43
2022/04/08 00:37:16;;;;;;;;;;;;;;;;;;2140429;27;19923;-43
2022/04/08 00:38:17;;;;;;;;;;;;;;;;;;2140458;27;19979;-44
2022/04/08 00:39:18;;;;;;;;;;;;;;;;;;2140715;27;19927;-43
2022/04/08 00:40:19;;;;;;;;;;;;;;;;;;2140544;27;19923;-44
2022/04/08 00:41:20;;;;;;;;;;;;;;;;;;2140328;27;20432;-43
2022/04/08 00:42:21;;;;;;;;;;;;;;;;;;2140593;27;19967;-43
2022/04/08 00:43:22;;;;;;;;;;;;;;;;;;2140413;27;19923;-43
2022/04/08 00:44:23;;;;;;;;;;;;;;;;;;2140503;27;20160;-43
2022/04/08 00:45:24;;;;;;;;;;;;;;;;;;2140529;27;20364;-44
2022/04/08 00:46:25;;;;;;;;;;;;;;;;;;2140392;27;19923;-43
2022/04/08 00:47:26;;;;;;;;;;;;;;;;;;2140401;27;20355;-43
2022/04/08 00:48:27;;;;;;;;;;;;;;;;;;2140224;27;19922;-44
2022/04/08 00:49:28;;;;;;;;;;;;;;;;;;2139939;27;20383;-44
2022/04/08 00:50:29;;;;;;;;;;;;;;;;;;2140547;27;20085;-43
2022/04/08 00:51:30;;;;;;;;;;;;;;;;;;2140455;27;19922;-43
2022/04/08 00:52:31;;;;;;;;;;;;;;;;;;2140514;27;19923;-42
2022/04/08 00:53:32;;;;;;;;;;;;;;;;;;2140417;27;19971;-44
2022/04/08 00:54:33;;;;;;;;;;;;;;;;;;2140359;27;20017;-43
2022/04/08 00:55:34;;;;;;;;;;;;;;;;;;2140418;27;20392;-43
2022/04/08 00:56:35;;;;;;;;;;;;;;;;;;2140447;27;19923;-43
2022/04/08 00:57:35;;;;;;;;;;;;;;;;;;2140421;27;19923;-44
2022/04/08 00:58:37;;;;;;;;;;;;;;;;;;2140802;27;20398;-47
2022/04/08 00:59:38;;;;;;;;;;;;;;;;;;2140261;27;19953;-49
2022/04/08 01:00:39;;;;;;;;;;;;;;;;;;2140493;27;19922;-47
2022/04/08 01:01:40;;;;;;;;;;;;;;;;;;2140379;27;19926;-46
2022/04/08 01:02:42;;;;;;;;;;;;;;;;;;2140131;27;19923;-43
2022/04/08 01:03:43;;;;;;;;;;;;;;;;;;2140514;27;19929;-43
2022/04/08 01:04:44;;;;;;;;;;;;;;;;;;2140620;27;19923;-42
2022/04/08 01:05:45;;;;;;;;;;;;;;;;;;2140300;27;20356;-43
2022/04/08 01:06:46;;;;;;;;;;;;;;;;;;2140472;27;19922;-42
2022/04/08 01:07:47;;;;;;;;;;;;;;;;;;2140586;27;19987;-47
2022/04/08 01:08:49;;;;;;;;;;;;;;;;;;2140325;27;19927;-48
2022/04/08 01:09:50;;;;;;;;;;;;;;;;;;2140438;27;19963;-46
2022/04/08 01:10:52;;;;;;;;;;;;;;;;;;2140312;27;19931;-46
2022/04/08 01:11:53;;;;;;;;;;;;;;;;;;2140404;27;19981;-47
2022/04/08 01:12:54;;;;;;;;;;;;;;;;;;2140238;27;19923;-48
2022/04/08 01:13:55;;;;;;;;;;;;;;;;;;2140211;27;19954;-48
2022/04/08 01:14:56;;;;;;;;;;;;;;;;;;2131696;27;19992;-48
2022/04/08 01:15:57;;;;;;;;;;;;;;;;;;2131771;27;19927;-47
2022/04/08 01:16:59;;;;;;;;;;;;;;;;;;2131534;27;19926;-48
2022/04/08 01:17:59;;;;;;;;;;;;;;;;;;2131809;27;19930;-48
2022/04/08 01:19:01;;;;;;;;;;;;;;;;;;2131683;27;19980;-48
2022/04/08 01:20:01;;;;;;;;;;;;;;;;;;2131632;27;19997;-47
2022/04/08 01:21:03;;;;;;;;;;;;;;;;;;2131582;27;20063;-47
2022/04/08 01:22:04;;;;;;;;;;;;;;;;;;2131533;27;20319;-46
2022/04/08 01:23:05;;;;;;;;;;;;;;;;;;2132118;27;19923;-47
2022/04/08 01:24:05;;;;;;;;;;;;;;;;;;2131799;27;19935;-47
2022/04/08 01:25:07;;;;;;;;;;;;;;;;;;2131744;27;19932;-47
2022/04/08 01:26:07;;;;;;;;;;;;;;;;;;2131940;27;19930;-42
2022/04/08 01:27:08;;;;;;;;;;;;;;;;;;2131517;27;19923;-43
2022/04/08 01:28:09;;;;;;;;;;;;;;;;;;2131906;27;19952;-48
2022/04/08 01:29:11;;;;;;;;;;;;;;;;;;2131572;27;19924;-48
2022/04/08 01:30:12;;;;;;;;;;;;;;;;;;2131700;27;19930;-49
2022/04/08 01:31:13;;;;;;;;;;;;;;;;;;2131468;27;19969;-48
2022/04/08 01:32:14;;;;;;;;;;;;;;;;;;2131697;27;19933;-49
2022/04/08 01:33:16;;;;;;;;;;;;;;;;;;2131442;27;19930;-48
2022/04/08 01:34:17;;;;;;;;;;;;;;;;;;2131640;27;19923;-47
2022/04/08 01:35:18;;;;;;;;;;;;;;;;;;2131421;27;20307;-48
2022/04/08 01:36:19;;;;;;;;;;;;;;;;;;2131444;27;20387;-49
2022/04/08 01:37:20;;;;;;;;;;;;;;;;;;2131539;27;19930;-48
2022/04/08 01:38:22;;;;;;;;;;;;;;;;;;2131533;27;19929;-47
2022/04/08 01:39:23;;;;;;;;;;;;;;;;;;2131445;27;19923;-47
2022/04/08 01:40:24;;;;;;;;;;;;;;;;;;2131453;27;20474;-49
2022/04/08 01:41:28;;;;;;;;;;;;;;;;;;2131480;27;20372;-47
2022/04/08 01:42:29;;;;;;;;;;;;;;;;;;2131457;27;19931;-48
2022/04/08 01:43:30;;;;;;;;;;;;;;;;;;2131736;27;19968;-43
2022/04/08 01:44:31;;;;;;;;;;;;;;;;;;2132013;27;19923;-44
2022/04/08 01:45:32;;;;;;;;;;;;;;;;;;2131573;27;19923;-43
2022/04/08 01:46:33;;;;;;;;;;;;;;;;;;2131544;27;19970;-43
2022/04/08 01:47:34;;;;;;;;;;;;;;;;;;2131755;27;20379;-49
2022/04/08 01:48:35;;;;;;;;;;;;;;;;;;2131642;27;19930;-48
2022/04/08 01:49:35;;;;;;;;;;;;;;;;;;2131530;27;19930;-48
2022/04/08 01:50:37;;;;;;;;;;;;;;;;;;2131651;27;19923;-49
2022/04/08 01:51:38;;;;;;;;;;;;;;;;;;2131360;27;20315;-48
2022/04/08 01:52:39;;;;;;;;;;;;;;;;;;2131557;27;19924;-48
2022/04/08 01:53:40;;;;;;;;;;;;;;;;;;2131342;27;19923;-48
2022/04/08 01:54:41;;;;;;;;;;;;;;;;;;2131542;27;19923;-49
2022/04/08 01:55:42;;;;;;;;;;;;;;;;;;2131461;27;19923;-48
2022/04/08 01:56:43;;;;;;;;;;;;;;;;;;2131503;27;20368;-43
2022/04/08 01:57:44;;;;;;;;;;;;;;;;;;2131562;27;20276;-44
2022/04/08 01:58:45;;;;;;;;;;;;;;;;;;2131595;27;19924;-44
2022/04/08 01:59:47;;;;;;;;;;;;;;;;;;2131429;27;19923;-43
2022/04/08 02:00:49;;;;;;;;;;;;;;;;;;2131488;27;19927;-43
2022/04/08 02:01:50;;;;;;;;;;;;;;;;;;2132660;27;19923;-44
2022/04/08 02:02:52;;;;;;;;;;;;;;;;;;2136054;27;19923;-44
2022/04/08 02:03:53;;;;;;;;;;;;;;;;;;2141632;27;19961;-43
2022/04/08 02:04:54;;;;;;;;;;;;;;;;;;2141562;27;19957;-43
2022/04/08 02:05:55;;;;;;;;;;;;;;;;;;2141768;27;19923;-48
2022/04/08 02:06:56;;;;;;;;;;;;;;;;;;2141333;27;19927;-48
2022/04/08 02:07:57;;;;;;;;;;;;;;;;;;2141476;27;19930;-48
2022/04/08 02:08:58;;;;;;;;;;;;;;;;;;2141628;27;19931;-48
2022/04/08 02:09:59;;;;;;;;;;;;;;;;;;2141489;27;20295;-48
2022/04/08 02:11:00;;;;;;;;;;;;;;;;;;2141334;27;19923;-47
2022/04/08 02:12:01;;;;;;;;;;;;;;;;;;2140998;27;19922;-43
2022/04/08 02:13:02;;;;;;;;;;;;;;;;;;2141664;27;19923;-44
2022/04/08 02:14:03;;;;;;;;;;;;;;;;;;2140020;27;19966;-44
2022/04/08 02:15:04;;;;;;;;;;;;;;;;;;2132902;27;19931;-43
2022/04/08 02:16:05;;;;;;;;;;;;;;;;;;2132813;27;19972;-44
2022/04/08 02:17:06;;;;;;;;;;;;;;;;;;2132750;27;19991;-43
2022/04/08 02:18:07;;;;;;;;;;;;;;;;;;2132853;27;19923;-43
2022/04/08 02:19:08;;;;;;;;;;;;;;;;;;2132950;27;19926;-43
2022/04/08 02:20:09;;;;;;;;;;;;;;;;;;2132592;27;20414;-43
2022/04/08 02:21:10;;;;;;;;;;;;;;;;;;2132648;27;20021;-43
2022/04/08 02:22:11;;;;;;;;;;;;;;;;;;2132933;27;20349;-43
2022/04/08 02:23:12;;;;;;;;;;;;;;;;;;2132755;27;19923;-43
2022/04/08 02:24:13;;;;;;;;;;;;;;;;;;2132829;27;20035;-44
2022/04/08 02:25:14;;;;;;;;;;;;;;;;;;2132754;27;19927;-43
2022/04/08 02:26:16;;;;;;;;;;;;;;;;;;2132701;27;20391;-43
2022/04/08 02:27:17;;;;;;;;;;;;;;;;;;2132646;27;19958;-44
2022/04/08 02:28:18;;;;;;;;;;;;;;;;;;2132676;27;19927;-43
2022/04/08 02:29:19;;;;;;;;;;;;;;;;;;2132763;27;19930;-43
2022/04/08 02:30:20;;;;;;;;;;;;;;;;;;2132766;27;19946;-43
2022/04/08 02:31:21;;;;;;;;;;;;;;;;;;2132809;27;19959;-43
2022/04/08 02:32:22;;;;;;;;;;;;;;;;;;2132955;27;19923;-44
2022/04/08 02:33:23;;;;;;;;;;;;;;;;;;2132598;27;20296;-43
2022/04/08 02:34:24;;;;;;;;;;;;;;;;;;2132689;27;19929;-43
2022/04/08 02:35:25;;;;;;;;;;;;;;;;;;2132699;27;19923;-43
2022/04/08 02:36:26;;;;;;;;;;;;;;;;;;2132483;27;19975;-43
2022/04/08 02:37:27;;;;;;;;;;;;;;;;;;2132621;27;20137;-43
2022/04/08 02:38:28;;;;;;;;;;;;;;;;;;2132616;27;20351;-43
2022/04/08 02:39:29;;;;;;;;;;;;;;;;;;2132873;27;19971;-43
2022/04/08 02:40:31;;;;;;;;;;;;;;;;;;2133342;27;19995;-47
2022/04/08 02:41:31;;;;;;;;;;;;;;;;;;2132713;27;19934;-49
2022/04/08 02:42:33;;;;;;;;;;;;;;;;;;2132500;27;20010;-50
2022/04/08 02:43:33;;;;;;;;;;;;;;;;;;2133040;27;19923;-49
2022/04/08 02:44:34;;;;;;;;;;;;;;;;;;2132656;27;20265;-48
2022/04/08 02:45:36;;;;;;;;;;;;;;;;;;2132587;27;19924;-47
2022/04/08 02:46:37;;;;;;;;;;;;;;;;;;2132650;27;19924;-48
2022/04/08 02:47:38;;;;;;;;;;;;;;;;;;2132786;27;19934;-44
2022/04/08 02:48:39;;;;;;;;;;;;;;;;;;2132767;27;19967;-44
2022/04/08 02:49:40;;;;;;;;;;;;;;;;;;2132587;27;20324;-43
2022/04/08 02:50:41;;;;;;;;;;;;;;;;;;2132582;27;19976;-43
2022/04/08 02:51:42;;;;;;;;;;;;;;;;;;2132483;27;19923;-43
2022/04/08 02:52:43;;;;;;;;;;;;;;;;;;2132691;27;20018;-43
2022/04/08 02:53:44;;;;;;;;;;;;;;;;;;2132577;27;19923;-44
2022/04/08 02:54:45;;;;;;;;;;;;;;;;;;2132592;27;19976;-44
2022/04/08 02:55:46;;;;;;;;;;;;;;;;;;2132582;27;19983;-43
2022/04/08 02:56:47;;;;;;;;;;;;;;;;;;2132482;27;19923;-44
2022/04/08 02:57:50;;;;;;;;;;;;;;;;;;2132667;27;20399;-47
2022/04/08 02:58:52;;;;;;;;;;;;;;;;;;2132555;27;19968;-49
2022/04/08 02:59:53;;;;;;;;;;;;;;;;;;2136377;27;19930;-48
2022/04/08 03:00:57;;;;;;;;;;;;;;;;;;2140997;27;20287;-47
2022/04/08 03:01:59;;;;;;;;;;;;;;;;;;2141065;27;19931;-49
2022/04/08 03:03:00;;;;;;;;;;;;;;;;;;2141057;27;20428;-47
2022/04/08 03:04:02;;;;;;;;;;;;;;;;;;2141199;27;20010;-48
2022/04/08 03:05:06;;;;;;;;;;;;;;;;;;2141233;27;19930;-49
2022/04/08 03:06:07;;;;;;;;;;;;;;;;;;2141295;27;19923;-48
2022/04/08 03:07:08;;;;;;;;;;;;;;;;;;2140943;27;19927;-48
2022/04/08 03:08:09;;;;;;;;;;;;;;;;;;2141025;27;20264;-50
2022/04/08 03:09:10;;;;;;;;;;;;;;;;;;2141133;27;19930;-48
2022/04/08 03:10:11;;;;;;;;;;;;;;;;;;2140961;27;19923;-48
2022/04/08 03:11:12;;;;;;;;;;;;;;;;;;2141126;27;19922;-47
2022/04/08 03:12:13;;;;;;;;;;;;;;;;;;2140655;27;20291;-50
2022/04/08 03:13:14;;;;;;;;;;;;;;;;;;2141096;27;19934;-49
2022/04/08 03:14:16;;;;;;;;;;;;;;;;;;2138223;27;20376;-48
2022/04/08 03:15:17;;;;;;;;;;;;;;;;;;2132558;27;19923;-48
2022/04/08 03:16:18;;;;;;;;;;;;;;;;;;2132419;27;19927;-50
2022/04/08 03:17:19;;;;;;;;;;;;;;;;;;2132520;27;20447;-48
2022/04/08 03:18:20;;;;;;;;;;;;;;;;;;2132398;27;19923;-48
2022/04/08 03:19:21;;;;;;;;;;;;;;;;;;2132412;27;19930;-47
2022/04/08 03:20:24;;;;;;;;;;;;;;;;;;2132162;27;19946;-48
2022/04/08 03:21:25;;;;;;;;;;;;;;;;;;2139546;27;20367;-49
2022/04/08 03:22:26;;;;;;;;;;;;;;;;;;2141185;27;19956;-43
2022/04/08 03:23:27;;;;;;;;;;;;;;;;;;2140952;27;19926;-43
2022/04/08 03:24:30;;;;;;;;;;;;;;;;;;2140979;27;19961;-44
2022/04/08 03:25:31;;;;;;;;;;;;;;;;;;2141325;27;20394;-44
2022/04/08 03:26:32;;;;;;;;;;;;;;;;;;2140856;27;19923;-44
2022/04/08 03:27:33;;;;;;;;;;;;;;;;;;2141037;27;19949;-44
2022/04/08 03:28:34;;;;;;;;;;;;;;;;;;2141234;27;20283;-44
2022/04/08 03:29:35;;;;;;;;;;;;;;;;;;2141273;27;19923;-44
2022/04/08 03:30:36;;;;;;;;;;;;;;;;;;2141365;27;20360;-50
2022/04/08 03:31:38;;;;;;;;;;;;;;;;;;2140959;27;19951;-48
2022/04/08 03:32:39;;;;;;;;;;;;;;;;;;2140860;27;19950;-49
2022/04/08 03:33:40;;;;;;;;;;;;;;;;;;2140938;27;19929;-50
2022/04/08 03:34:41;;;;;;;;;;;;;;;;;;2140827;27;19981;-48
2022/04/08 03:35:42;;;;;;;;;;;;;;;;;;2140874;27;20383;-48
2022/04/08 03:36:45;;;;;;;;;;;;;;;;;;2140683;27;19930;-43
2022/04/08 03:37:46;;;;;;;;;;;;;;;;;;2140854;27;20385;-44
2022/04/08 03:38:46;;;;;;;;;;;;;;;;;;2140870;27;20375;-44
2022/04/08 03:39:48;;;;;;;;;;;;;;;;;;2141041;27;19922;-43
2022/04/08 03:40:49;;;;;;;;;;;;;;;;;;2140828;27;19930;-44
2022/04/08 03:41:50;;;;;;;;;;;;;;;;;;2140748;27;19922;-44
2022/04/08 03:42:51;;;;;;;;;;;;;;;;;;2140826;27;20375;-43
2022/04/08 03:43:52;;;;;;;;;;;;;;;;;;2140769;27;19930;-45
2022/04/08 03:44:54;;;;;;;;;;;;;;;;;;2141098;27;20335;-50
2022/04/08 03:45:55;;;;;;;;;;;;;;;;;;2140883;27;19926;-48
2022/04/08 03:46:56;;;;;;;;;;;;;;;;;;2141036;27;20332;-44
2022/04/08 03:47:57;;;;;;;;;;;;;;;;;;2140967;27;19934;-44
2022/04/08 03:48:58;;;;;;;;;;;;;;;;;;2140918;27;20303;-44
2022/04/08 03:49:59;;;;;;;;;;;;;;;;;;2141010;27;20198;-43
2022/04/08 03:51:00;;;;;;;;;;;;;;;;;;2140737;27;19946;-43
2022/04/08 03:52:01;;;;;;;;;;;;;;;;;;2141093;27;19930;-44
2022/04/08 03:53:02;;;;;;;;;;;;;;;;;;2140770;27;20308;-44
2022/04/08 03:54:03;;;;;;;;;;;;;;;;;;2141046;27;19991;-48
2022/04/08 03:55:04;;;;;;;;;;;;;;;;;;2140802;27;19923;-48
2022/04/08 03:56:05;;;;;;;;;;;;;;;;;;2140727;27;20394;-48
2022/04/08 03:57:06;;;;;;;;;;;;;;;;;;2140747;27;19933;-48
2022/04/08 03:58:12;;;;;;;;;;;;;;;;;;2141025;27;20424;-44
2022/04/08 03:59:13;;;;;;;;;;;;;;;;;;2140647;27;20287;-43
2022/04/08 04:00:14;;;;;;;;;;;;;;;;;;2140660;27;19942;-44
2022/04/08 04:01:15;;;;;;;;;;;;;;;;;;2140703;27;19923;-43
2022/04/08 04:02:16;;;;;;;;;;;;;;;;;;2141066;27;20326;-48
2022/04/08 04:03:17;;;;;;;;;;;;;;;;;;2140781;27;19923;-44
2022/04/08 04:04:18;;;;;;;;;;;;;;;;;;2140716;27;19999;-43
2022/04/08 04:05:19;;;;;;;;;;;;;;;;;;2140399;27;19923;-44
2022/04/08 04:06:20;;;;;;;;;;;;;;;;;;2140792;27;19922;-44
2022/04/08 04:07:21;;;;;;;;;;;;;;;;;;2140715;27;20383;-44
2022/04/08 04:08:22;;;;;;;;;;;;;;;;;;2140548;27;19942;-44
2022/04/08 04:09:23;;;;;;;;;;;;;;;;;;2140818;27;19967;-44
2022/04/08 04:10:25;;;;;;;;;;;;;;;;;;2140986;27;19923;-48
2022/04/08 04:11:25;;;;;;;;;;;;;;;;;;2140660;27;19923;-48
2022/04/08 04:12:27;;;;;;;;;;;;;;;;;;2140867;27;19922;-48
2022/04/08 04:13:28;;;;;;;;;;;;;;;;;;2140649;27;19933;-49
2022/04/08 04:14:29;;;;;;;;;;;;;;;;;;2140382;27;20418;-47
2022/04/08 04:15:30;;;;;;;;;;;;;;;;;;2140438;27;19946;-47
2022/04/08 04:16:31;;;;;;;;;;;;;;;;;;2140699;27;19930;-48
2022/04/08 04:17:32;;;;;;;;;;;;;;;;;;2140723;27;19937;-48
2022/04/08 04:18:33;;;;;;;;;;;;;;;;;;2140583;27;19927;-48
2022/04/08 04:19:34;;;;;;;;;;;;;;;;;;2140856;27;19930;-44
2022/04/08 04:20:35;;;;;;;;;;;;;;;;;;2141280;27;19923;-44
2022/04/08 04:21:36;;;;;;;;;;;;;;;;;;2140590;27;19923;-43
2022/04/08 04:22:37;;;;;;;;;;;;;;;;;;2140749;27;19923;-44
2022/04/08 04:23:38;;;;;;;;;;;;;;;;;;2140238;27;19927;-44
2022/04/08 04:24:39;;;;;;;;;;;;;;;;;;2140236;27;20366;-45
2022/04/08 04:25:40;;;;;;;;;;;;;;;;;;2140634;27;19923;-44
2022/04/08 04:26:41;;;;;;;;;;;;;;;;;;2140653;27;19923;-48
2022/04/08 04:27:42;;;;;;;;;;;;;;;;;;2140619;27;19923;-48
2022/04/08 04:28:43;;;;;;;;;;;;;;;;;;2140543;27;19923;-48
2022/04/08 04:29:44;;;;;;;;;;;;;;;;;;2140445;27;20406;-47
2022/04/08 04:30:45;;;;;;;;;;;;;;;;;;2140724;27;19929;-49
2022/04/08 04:31:46;;;;;;;;;;;;;;;;;;2140536;27;20290;-48
2022/04/08 04:32:48;;;;;;;;;;;;;;;;;;2140289;27;19923;-47
2022/04/08 04:33:49;;;;;;;;;;;;;;;;;;2140469;27;19923;-48
2022/04/08 04:34:50;;;;;;;;;;;;;;;;;;2140615;27;20224;-48
2022/04/08 04:35:51;;;;;;;;;;;;;;;;;;2140564;27;19923;-48
2022/04/08 04:36:53;;;;;;;;;;;;;;;;;;2140482;27;19969;-48
2022/04/08 04:37:54;;;;;;;;;;;;;;;;;;2140522;27;19923;-48
2022/04/08 04:38:55;;;;;;;;;;;;;;;;;;2140558;27;19951;-48
2022/04/08 04:39:56;;;;;;;;;;;;;;;;;;2140481;27;20367;-48
2022/04/08 04:40:57;;;;;;;;;;;;;;;;;;2140772;27;19971;-44
2022/04/08 04:41:59;;;;;;;;;;;;;;;;;;2140378;27;19934;-44
2022/04/08 04:43:00;;;;;;;;;;;;;;;;;;2140819;27;19929;-44
2022/04/08 04:44:01;;;;;;;;;;;;;;;;;;2140595;27;19923;-44
2022/04/08 04:45:02;;;;;;;;;;;;;;;;;;2140499;27;19923;-49
2022/04/08 04:46:03;;;;;;;;;;;;;;;;;;2141119;27;20489;-50
2022/04/08 04:47:04;;;;;;;;;;;;;;;;;;2140522;27;19929;-44
2022/04/08 04:48:06;;;;;;;;;;;;;;;;;;2140453;27;20394;-44
2022/04/08 04:49:06;;;;;;;;;;;;;;;;;;2140667;27;19930;-49
2022/04/08 04:50:08;;;;;;;;;;;;;;;;;;2140416;27;20350;-49
2022/04/08 04:51:11;;;;;;;;;;;;;;;;;;2140354;27;19979;-48
2022/04/08 04:52:13;;;;;;;;;;;;;;;;;;2140461;27;19930;-48
2022/04/08 04:53:13;;;;;;;;;;;;;;;;;;2140929;27;19987;-43
2022/04/08 04:54:15;;;;;;;;;;;;;;;;;;2140361;27;19927;-44
2022/04/08 04:55:15;;;;;;;;;;;;;;;;;;2140407;27;19975;-44
2022/04/08 04:56:17;;;;;;;;;;;;;;;;;;2140251;27;19926;-44
2022/04/08 04:57:18;;;;;;;;;;;;;;;;;;2140431;27;19927;-44
2022/04/08 04:58:19;;;;;;;;;;;;;;;;;;2140339;27;19930;-44
2022/04/08 04:59:20;;;;;;;;;;;;;;;;;;2140545;27;19939;-44
2022/04/08 05:00:21;;;;;;;;;;;;;;;;;;2140326;27;20387;-48
2022/04/08 05:01:23;;;;;;;;;;;;;;;;;;2140466;27;19934;-49
2022/04/08 05:02:24;;;;;;;;;;;;;;;;;;2140397;27;19927;-48
2022/04/08 05:03:25;;;;;;;;;;;;;;;;;;2140229;27;20081;-48
2022/04/08 05:04:26;;;;;;;;;;;;;;;;;;2140293;27;20435;-49
2022/04/08 05:05:27;;;;;;;;;;;;;;;;;;2140350;27;19971;-47
2022/04/08 05:06:28;;;;;;;;;;;;;;;;;;2140250;27;19994;-47
2022/04/08 05:07:29;;;;;;;;;;;;;;;;;;2140683;27;20347;-48
2022/04/08 05:08:30;;;;;;;;;;;;;;;;;;2140249;27;19923;-51
2022/04/08 05:09:32;;;;;;;;;;;;;;;;;;2140155;27;19994;-48
2022/04/08 05:10:33;;;;;;;;;;;;;;;;;;2140296;27;20046;-47
2022/04/08 05:11:34;;;;;;;;;;;;;;;;;;2140219;27;19944;-48
2022/04/08 05:12:35;;;;;;;;;;;;;;;;;;2140181;27;19923;-48
2022/04/08 05:13:36;;;;;;;;;;;;;;;;;;2140352;27;19923;-48
2022/04/08 05:14:37;;;;;;;;;;;;;;;;;;2133922;27;19930;-48
2022/04/08 05:15:42;;;;;;;;;;;;;;;;;;2131545;27;19935;-48
2022/04/08 05:16:43;;;;;;;;;;;;;;;;;;2131764;27;19924;-48
2022/04/08 05:17:45;;;;;;;;;;;;;;;;;;2131968;27;19975;-48
2022/04/08 05:18:47;;;;;;;;;;;;;;;;;;2131828;27;19923;-49
2022/04/08 05:19:48;;;;;;;;;;;;;;;;;;2131835;27;19927;-49
2022/04/08 05:20:52;;;;;;;;;;;;;;;;;;2131475;27;20254;-49
2022/04/08 05:21:53;;;;;;;;;;;;;;;;;;2131579;27;19930;-49
2022/04/08 05:22:54;;;;;;;;;;;;;;;;;;2131904;27;20352;-43
2022/04/08 05:23:55;;;;;;;;;;;;;;;;;;2131585;27;20021;-44
2022/04/08 05:24:58;;;;;;;;;;;;;;;;;;2131589;27;19923;-44
2022/04/08 05:25:59;;;;;;;;;;;;;;;;;;2131688;27;19927;-43
2022/04/08 05:27:00;;;;;;;;;;;;;;;;;;2131583;27;19927;-43
2022/04/08 05:28:01;;;;;;;;;;;;;;;;;;2131587;27;19923;-44
2022/04/08 05:29:02;;;;;;;;;;;;;;;;;;2131562;27;20394;-45
2022/04/08 05:30:03;;;;;;;;;;;;;;;;;;2140259;27;19978;-43
2022/04/08 05:31:04;;;;;;;;;;;;;;;;;;2140285;27;20002;-43
2022/04/08 05:32:05;;;;;;;;;;;;;;;;;;2140081;27;20443;-43
2022/04/08 05:33:06;;;;;;;;;;;;;;;;;;2140323;27;19922;-43
2022/04/08 05:34:07;;;;;;;;;;;;;;;;;;2140328;27;19942;-43
2022/04/08 05:35:08;;;;;;;;;;;;;;;;;;2140544;27;19946;-43
2022/04/08 05:36:10;;;;;;;;;;;;;;;;;;2141919;27;19930;-43
2022/04/08 05:37:12;;;;;;;;;;;;;;;;;;2141643;27;20398;-43
2022/04/08 05:38:13;;;;;;;;;;;;;;;;;;2142146;27;19923;-48
2022/04/08 05:39:14;;;;;;;;;;;;;;;;;;2141865;27;19934;-43
2022/04/08 05:40:16;;;;;;;;;;;;;;;;;;2141896;27;19923;-43
2022/04/08 05:41:17;;;;;;;;;;;;;;;;;;2142055;27;19922;-44
2022/04/08 05:42:18;;;;;;;;;;;;;;;;;;2141859;27;20414;-49
2022/04/08 05:43:19;;;;;;;;;;;;;;;;;;2141868;27;19930;-43
2022/04/08 05:44:20;;;;;;;;;;;;;;;;;;2141814;27;19930;-43
2022/04/08 05:45:21;;;;;;;;;;;;;;;;;;2141785;27;20386;-43
2022/04/08 05:46:22;;;;;;;;;;;;;;;;;;2141562;27;19922;-43
2022/04/08 05:47:23;;;;;;;;;;;;;;;;;;2141665;27;20416;-43
2022/04/08 05:48:24;;;;;;;;;;;;;;;;;;2141595;27;19925;-44
2022/04/08 05:49:25;;;;;;;;;;;;;;;;;;2141643;27;19929;-44
2022/04/08 05:50:26;;;;;;;;;;;;;;;;;;2141673;27;19930;-44
2022/04/08 05:51:27;;;;;;;;;;;;;;;;;;2141569;27;19926;-44
2022/04/08 05:52:40;;;;;;;;;;;;;;;;;;2141817;27;19923;-44
2022/04/08 05:53:41;;;;;;;;;;;;;;;;;;2141718;27;19973;-44
2022/04/08 05:54:42;;;;;;;;;;;;;;;;;;2141456;27;19923;-43
2022/04/08 05:55:43;;;;;;;;;;;;;;;;;;2141616;27;19966;-44
2022/04/08 05:56:44;;;;;;;;;;;;;;;;;;2141519;27;19922;-43
2022/04/08 05:57:46;;;;;;;;;;;;;;;;;;2141796;27;20390;-50
2022/04/08 05:58:47;;;;;;;;;;;;;;;;;;2141724;27;19922;-43
2022/04/08 05:59:48;;;;;;;;;;;;;;;;;;2141583;27;20013;-43
2022/04/08 06:00:49;;;;;;;;;;;;;;;;;;2141463;27;19927;-43
2022/04/08 06:01:50;;;;;;;;;;;;;;;;;;2141614;27;19976;-44
2022/04/08 06:02:55;;;;;;;;;;;;;;;;;;2141519;27;19922;-44
2022/04/08 06:03:56;;;;;;;;;;;;;;;;;;2141484;27;19923;-43
2022/04/08 06:04:57;;;;;;;;;;;;;;;;;;2141666;27;19923;-44
2022/04/08 06:05:58;;;;;;;;;;;;;;;;;;2141453;27;19936;-44
2022/04/08 06:06:59;;;;;;;;;;;;;;;;;;2141447;27;19964;-44
2022/04/08 06:08:01;;;;;;;;;;;;;;;;;;2141514;27;19927;-43
2022/04/08 06:09:02;;;;;;;;;;;;;;;;;;2141438;27;20375;-43
2022/04/08 06:10:03;;;;;;;;;;;;;;;;;;2141701;27;19942;-44
2022/04/08 06:11:04;;;;;;;;;;;;;;;;;;2141461;27;19922;-43
2022/04/08 06:12:05;;;;;;;;;;;;;;;;;;2141390;27;20288;-43
2022/04/08 06:13:06;;;;;;;;;;;;;;;;;;2141355;27;19923;-43
2022/04/08 06:14:07;;;;;;;;;;;;;;;;;;2139565;27;19930;-44
2022/04/08 06:15:11;;;;;;;;;;;;;;;;;;2133319;27;19930;-48
2022/04/08 06:16:12;;;;;;;;;;;;;;;;;;2132785;27;20001;-48
2022/04/08 06:17:13;;;;;;;;;;;;;;;;;;2132965;27;19957;-43
2022/04/08 06:18:15;;;;;;;;;;;;;;;;;;2132867;27;20284;-43
2022/04/08 06:19:16;;;;;;;;;;;;;;;;;;2132761;27;19934;-43
2022/04/08 06:20:17;;;;;;;;;;;;;;;;;;2132915;27;19980;-43
2022/04/08 06:21:18;;;;;;;;;;;;;;;;;;2132674;27;19959;-43
2022/04/08 06:22:19;;;;;;;;;;;;;;;;;;2137411;27;19937;-43
2022/04/08 06:23:20;;;;;;;;;;;;;;;;;;2141621;27;19960;-44
2022/04/08 06:24:21;;;;;;;;;;;;;;;;;;2141346;27;19934;-44
2022/04/08 06:25:22;;;;;;;;;;;;;;;;;;2141151;27;19961;-44
2022/04/08 06:26:23;;;;;;;;;;;;;;;;;;2141410;27;19922;-43
2022/04/08 06:27:24;;;;;;;;;;;;;;;;;;2141310;27;19926;-43
2022/04/08 06:28:26;;;;;;;;;;;;;;;;;;2141546;27;20412;-49
2022/04/08 06:29:26;;;;;;;;;;;;;;;;;;2141289;27;19923;-49
2022/04/08 06:30:28;;;;;;;;;;;;;;;;;;2141305;27;19922;-48
2022/04/08 06:31:30;;;;;;;;;;;;;;;;;;2141309;27;19926;-48
2022/04/08 06:32:30;;;;;;;;;;;;;;;;;;2141374;27;19922;-48
2022/04/08 06:33:32;;;;;;;;;;;;;;;;;;2141429;27;20434;-49
2022/04/08 06:34:33;;;;;;;;;;;;;;;;;;2141594;27;19923;-48
2022/04/08 06:35:34;;;;;;;;;;;;;;;;;;2141309;27;19930;-48
2022/04/08 06:36:35;;;;;;;;;;;;;;;;;;2141168;27;20452;-48
2022/04/08 06:37:36;;;;;;;;;;;;;;;;;;2141352;27;19964;-43
2022/04/08 06:38:37;;;;;;;;;;;;;;;;;;2141434;27;19941;-43
2022/04/08 06:39:38;;;;;;;;;;;;;;;;;;2141279;27;20322;-44
2022/04/08 06:40:39;;;;;;;;;;;;;;;;;;2141142;27;19952;-44
2022/04/08 06:41:40;;;;;;;;;;;;;;;;;;2141389;27;19927;-44
2022/04/08 06:42:41;;;;;;;;;;;;;;;;;;2141391;27;19930;-44
2022/04/08 06:43:43;;;;;;;;;;;;;;;;;;2141361;27;20299;-49
2022/04/08 06:44:43;;;;;;;;;;;;;;;;;;2141329;27;19926;-49
2022/04/08 06:45:45;;;;;;;;;;;;;;;;;;2141197;27;20321;-48
2022/04/08 06:46:45;;;;;;;;;;;;;;;;;;2140902;27;19923;-43
2022/04/08 06:47:47;;;;;;;;;;;;;;;;;;2141241;27;20371;-48
2022/04/08 06:48:48;;;;;;;;;;;;;;;;;;2141340;27;19923;-43
2022/04/08 06:49:49;;;;;;;;;;;;;;;;;;2141101;27;19926;-44
2022/04/08 06:50:50;;;;;;;;;;;;;;;;;;2141166;27;19922;-44
2022/04/08 06:51:53;;;;;;;;;;;;;;;;;;2141586;27;19923;-48
2022/04/08 06:52:59;;;;;;;;;;;;;;;;;;2141149;27;19930;-47
2022/04/08 06:54:00;;;;;;;;;;;;;;;;;;2141243;27;19971;-48
2022/04/08 06:55:01;;;;;;;;;;;;;;;;;;2141135;27;19923;-49
2022/04/08 06:56:02;;;;;;;;;;;;;;;;;;2141156;27;20422;-50
2022/04/08 06:57:04;;;;;;;;;;;;;;;;;;2140967;27;19927;-44
2022/04/08 06:58:05;;;;;;;;;;;;;;;;;;2140923;27;19930;-44